Time;durP1;ratioP1;P1;durP2;ratioP2;P2;SDS_P1;SDS_P2;PMS_P1;PMS_P2;Temp;Humidity;BMP_temperature;BMP_pressure;BME280_temperature;BME280_humidity;BME280_pressure;Samples;Min_cycle;Max_cycle;Signal;HPM_P1;HPM_P2
2021/08/31 00:00:32;;;;;;;11.63;9.60;;;;;;;11.17;100.00;93353.47;2096673;28;20025;-85
2021/08/31 00:01:32;;;;;;;11.95;9.75;;;;;;;11.10;100.00;93354.34;2106291;28;20073;-84
2021/08/31 00:02:33;;;;;;;17.90;9.40;;;;;;;11.16;100.00;93359.25;2103966;28;20036;-84
2021/08/31 00:03:34;;;;;;;13.35;9.95;;;;;;;11.19;100.00;93363.75;2098056;28;20451;-84
2021/08/31 00:04:35;;;;;;;13.60;9.90;;;;;;;11.21;100.00;93361.44;2097740;28;20033;-82
2021/08/31 00:05:36;;;;;;;10.20;9.00;;;;;;;11.20;100.00;93359.94;2098591;28;20469;-83
2021/08/31 00:06:37;;;;;;;15.63;10.40;;;;;;;11.21;100.00;93359.50;2109890;28;20048;-82
2021/08/31 00:07:38;;;;;;;21.60;9.63;;;;;;;11.24;100.00;93361.38;2101420;28;20020;-84
2021/08/31 00:08:39;;;;;;;10.38;9.13;;;;;;;11.21;100.00;93356.06;2109572;28;20077;-84
2021/08/31 00:09:40;;;;;;;21.88;9.23;;;;;;;11.24;100.00;93357.94;2114745;28;20488;-83
2021/08/31 00:10:41;;;;;;;14.77;9.70;;;;;;;11.23;100.00;93359.09;2102605;28;20024;-85
2021/08/31 00:11:44;;;;;;;15.13;9.07;;;;;;;11.24;100.00;93363.28;2106249;28;20024;-82
2021/08/31 00:12:45;;;;;;;11.95;9.50;;;;;;;11.22;100.00;93358.34;2114764;28;20047;-84
2021/08/31 00:13:46;;;;;;;12.32;8.57;;;;;;;11.25;100.00;93362.13;2115339;28;20016;-84
2021/08/31 00:14:47;;;;;;;12.82;9.57;;;;;;;11.24;100.00;93357.94;2123484;27;20065;-83
2021/08/31 00:15:48;;;;;;;13.20;9.13;;;;;;;11.24;100.00;93364.03;2101789;28;20127;-84
2021/08/31 00:16:49;;;;;;;19.58;9.82;;;;;;;11.25;100.00;93356.75;2114031;28;20046;-83
2021/08/31 00:17:50;;;;;;;13.10;9.43;;;;;;;11.24;100.00;93360.63;2106568;28;20517;-84
2021/08/31 00:18:51;;;;;;;10.70;9.23;;;;;;;11.17;100.00;93360.75;2111492;28;20452;-84
2021/08/31 00:19:52;;;;;;;13.30;9.15;;;;;;;11.20;100.00;93360.69;2111812;28;20381;-83
2021/08/31 00:20:53;;;;;;;13.23;9.32;;;;;;;11.22;100.00;93370.97;2100509;28;20025;-84
2021/08/31 00:21:54;;;;;;;12.45;8.88;;;;;;;11.19;100.00;93369.09;2090977;28;20078;-83
2021/08/31 00:22:55;;;;;;;14.57;9.30;;;;;;;11.19;100.00;93371.78;2114654;28;20036;-85
2021/08/31 00:23:56;;;;;;;10.88;9.55;;;;;;;11.19;100.00;93369.84;2107927;28;20354;-84
2021/08/31 00:24:56;;;;;;;11.60;9.48;;;;;;;11.18;100.00;93372.94;2106282;28;20031;-84
2021/08/31 00:25:57;;;;;;;11.68;8.98;;;;;;;11.17;100.00;93371.44;2101989;28;20523;-85
2021/08/31 00:26:58;;;;;;;16.10;9.23;;;;;;;11.20;100.00;93371.38;2099662;28;20025;-85
2021/08/31 00:27:59;;;;;;;12.00;9.32;;;;;;;11.21;100.00;93375.56;2100012;28;20501;-84
2021/08/31 00:29:00;;;;;;;10.90;9.32;;;;;;;11.21;100.00;93366.78;2106143;28;20069;-85
2021/08/31 00:30:01;;;;;;;14.73;9.52;;;;;;;11.23;100.00;93375.13;2094959;28;20042;-85
2021/08/31 00:31:02;;;;;;;15.02;9.40;;;;;;;11.25;100.00;93367.47;2103252;28;20504;-85
2021/08/31 00:32:03;;;;;;;11.07;9.27;;;;;;;11.23;100.00;93370.53;2106282;28;20024;-85
2021/08/31 00:33:04;;;;;;;12.52;9.80;;;;;;;11.25;100.00;93370.13;2097330;28;20021;-85
2021/08/31 00:34:05;;;;;;;16.30;8.88;;;;;;;11.24;100.00;93371.31;2105394;28;20028;-85
2021/08/31 00:35:06;;;;;;;12.55;9.40;;;;;;;11.23;100.00;93375.88;2106298;28;20028;-84
2021/08/31 00:36:08;;;;;;;10.50;9.40;;;;;;;11.27;100.00;93381.94;2102166;27;20477;-84
2021/08/31 00:37:09;;;;;;;12.00;9.02;;;;;;;11.26;100.00;93368.97;2105942;28;20069;-85
2021/08/31 00:38:09;;;;;;;12.20;9.15;;;;;;;11.27;100.00;93373.91;2094192;28;20050;-85
2021/08/31 00:39:10;;;;;;;12.90;9.57;;;;;;;11.27;100.00;93367.78;2110119;28;20066;-85
2021/08/31 00:40:12;;;;;;;12.05;9.35;;;;;;;11.25;100.00;93367.47;2123125;27;20027;-85
2021/08/31 00:41:13;;;;;;;11.65;8.65;;;;;;;11.29;100.00;93373.50;2110114;28;20028;-85
2021/08/31 00:42:14;;;;;;;11.73;9.23;;;;;;;11.30;100.00;93372.31;2105953;28;20020;-85
2021/08/31 00:43:17;;;;;;;14.15;9.45;;;;;;;11.28;100.00;93367.41;2123221;27;20074;-84
2021/08/31 00:44:23;;;;;;;18.55;9.23;;;;;;;11.28;100.00;93369.28;2113515;28;20023;-84
2021/08/31 00:45:24;;;;;;;12.55;8.75;;;;;;;11.21;100.00;93370.22;2108769;27;20048;-84
2021/08/31 00:46:25;;;;;;;11.52;8.52;;;;;;;11.19;100.00;93371.78;2120871;27;20088;-85
2021/08/31 00:47:26;;;;;;;12.27;9.68;;;;;;;11.21;100.00;93372.88;2111335;28;20023;-85
2021/08/31 00:48:27;;;;;;;10.88;9.30;;;;;;;11.21;100.00;93366.78;2106020;28;20028;-85
2021/08/31 00:49:29;;;;;;;10.55;8.73;;;;;;;11.23;100.00;93367.09;2105895;28;20074;-84
2021/08/31 00:50:30;;;;;;;11.57;8.82;;;;;;;11.18;100.00;93370.28;2105707;28;20407;-84
2021/08/31 00:51:31;;;;;;;10.82;8.52;;;;;;;11.18;100.00;93367.59;2091953;28;20025;-85
2021/08/31 00:52:32;;;;;;;9.77;8.45;;;;;;;11.18;100.00;93364.94;2096120;28;20038;-85
2021/08/31 00:53:34;;;;;;;16.45;9.35;;;;;;;11.20;100.00;93370.63;2097632;28;20025;-84
2021/08/31 00:54:36;;;;;;;10.23;8.60;;;;;;;11.22;100.00;93362.94;2106600;27;20511;-84
2021/08/31 00:55:37;;;;;;;15.02;9.00;;;;;;;11.26;100.00;93369.72;2101545;28;20073;-84
2021/08/31 00:56:38;;;;;;;10.90;8.50;;;;;;;11.24;100.00;93365.97;2097868;28;20016;-85
2021/08/31 00:57:40;;;;;;;13.70;9.13;;;;;;;11.27;100.00;93371.22;2114438;28;20099;-85
2021/08/31 00:58:42;;;;;;;14.32;8.32;;;;;;;11.24;100.00;93372.06;2110374;28;20016;-85
2021/08/31 00:59:42;;;;;;;17.50;8.98;;;;;;;11.22;100.00;93368.28;2093669;28;20023;-85
2021/08/31 01:00:43;;;;;;;13.55;8.35;;;;;;;11.25;100.00;93367.47;2089279;28;20021;-85
2021/08/31 01:01:52;;;;;;;8.43;7.65;;;;;;;11.25;100.00;93364.78;2097621;28;20054;-84
2021/08/31 01:02:54;;;;;;;11.05;9.00;;;;;;;11.27;100.00;93375.81;2110059;27;20376;-85
2021/08/31 01:03:54;;;;;;;15.07;8.60;;;;;;;11.27;100.00;93368.53;2107738;28;20020;-85
2021/08/31 01:04:55;;;;;;;10.40;8.57;;;;;;;11.24;100.00;93369.38;2104102;28;20031;-84
2021/08/31 01:05:57;;;;;;;11.18;8.98;;;;;;;11.25;100.00;93368.22;2103861;28;20023;-84
2021/08/31 01:06:59;;;;;;;10.45;8.70;;;;;;;11.25;100.00;93370.13;2105458;28;20136;-84
2021/08/31 01:08:00;;;;;;;10.18;7.55;;;;;;;11.29;100.00;93376.19;2097410;28;20033;-85
2021/08/31 01:09:01;;;;;;;9.60;8.25;;;;;;;11.27;100.00;93373.91;2101650;28;20055;-84
2021/08/31 01:10:03;;;;;;;9.20;7.50;;;;;;;11.27;100.00;93370.47;2100456;28;20059;-84
2021/08/31 01:11:05;;;;;;;12.85;7.93;;;;;;;11.25;100.00;93365.53;2099260;28;20024;-84
2021/08/31 01:12:06;;;;;;;9.70;8.38;;;;;;;11.28;100.00;93363.94;2105743;28;20117;-84
2021/08/31 01:13:07;;;;;;;10.80;7.95;;;;;;;11.29;100.00;93368.16;2105701;28;20498;-83
2021/08/31 01:14:09;;;;;;;7.93;7.13;;;;;;;11.30;100.00;93367.72;2114292;28;20023;-85
2021/08/31 01:15:12;;;;;;;7.85;7.05;;;;;;;11.28;100.00;93364.72;2109753;28;20030;-85
2021/08/31 01:16:13;;;;;;;7.70;7.00;;;;;;;11.28;100.00;93366.63;2097898;28;20467;-84
2021/08/31 01:17:14;;;;;;;8.18;7.38;;;;;;;11.27;100.00;93375.81;2097257;28;20025;-85
2021/08/31 01:18:21;;;;;;;10.82;8.00;;;;;;;11.24;100.00;93371.31;2105471;28;20012;-84
2021/08/31 01:19:30;;;;;;;9.13;7.72;;;;;;;11.20;100.00;93370.63;2107086;28;20047;-86
2021/08/31 01:20:32;;;;;;;10.27;7.10;;;;;;;11.23;100.00;93375.88;2104002;28;20027;-85
2021/08/31 01:21:33;;;;;;;8.63;7.40;;;;;;;11.18;100.00;93373.69;2097984;28;20029;-84
2021/08/31 01:22:34;;;;;;;9.43;7.22;;;;;;;11.18;100.00;93378.31;2097443;28;20032;-83
2021/08/31 01:23:35;;;;;;;9.55;8.45;;;;;;;11.20;100.00;93381.34;2101341;28;20032;-84
2021/08/31 01:24:40;;;;;;;11.95;7.55;;;;;;;11.17;100.00;93379.47;2109882;28;20032;-84
2021/08/31 01:25:43;;;;;;;12.23;8.00;;;;;;;11.18;100.00;93376.38;2110579;28;20020;-85
2021/08/31 01:26:44;;;;;;;8.10;7.30;;;;;;;11.17;100.00;93379.47;2114596;27;20454;-84
2021/08/31 01:27:45;;;;;;;13.60;7.30;;;;;;;11.18;100.00;93378.31;2105666;28;20032;-85
2021/08/31 01:28:46;;;;;;;9.00;7.20;;;;;;;11.20;100.00;93378.66;2097479;28;20111;-84
2021/08/31 01:29:49;;;;;;;9.07;7.25;;;;;;;11.19;100.00;93380.56;2109751;28;20114;-84
2021/08/31 01:30:51;;;;;;;8.80;6.88;;;;;;;11.18;100.00;93391.69;2104763;28;20046;-84
2021/08/31 01:31:53;;;;;;;9.35;6.57;;;;;;;11.18;100.00;93380.97;2103502;28;20519;-83
2021/08/31 01:32:54;;;;;;;8.05;7.25;;;;;;;11.18;100.00;93380.97;2114193;28;20031;-84
2021/08/31 01:33:55;;;;;;;8.90;7.05;;;;;;;11.10;100.00;93389.13;2099981;28;20021;-85
2021/08/31 01:34:56;;;;;;;12.23;7.75;;;;;;;11.16;100.00;93386.00;2103802;28;20047;-84
2021/08/31 01:35:58;;;;;;;9.77;7.30;;;;;;;11.12;100.00;93379.97;2109626;28;20038;-85
2021/08/31 01:36:59;;;;;;;9.77;6.90;;;;;;;11.06;100.00;93377.00;2114351;28;20472;-84
2021/08/31 01:38:00;;;;;;;7.88;7.10;;;;;;;11.02;100.00;93377.09;2104972;28;20052;-84
2021/08/31 01:39:01;;;;;;;8.82;7.93;;;;;;;11.08;100.00;93375.44;2105964;28;20020;-84
2021/08/31 01:40:02;;;;;;;8.85;7.07;;;;;;;11.09;100.00;93382.28;2112619;28;20478;-85
2021/08/31 01:41:03;;;;;;;9.10;6.88;;;;;;;11.08;100.00;93377.34;2105378;28;20031;-85
2021/08/31 01:42:05;;;;;;;7.80;7.00;;;;;;;11.07;100.00;93387.28;2089031;28;20078;-83
2021/08/31 01:43:06;;;;;;;9.57;7.10;;;;;;;11.19;100.00;93379.81;2113240;28;20051;-85
2021/08/31 01:44:07;;;;;;;7.60;6.85;;;;;;;11.17;100.00;93377.56;2114008;28;20050;-84
2021/08/31 01:45:08;;;;;;;17.30;7.22;;;;;;;11.16;100.00;93375.28;2109289;28;20020;-85
2021/08/31 01:46:09;;;;;;;10.68;7.07;;;;;;;11.14;100.00;93378.38;2097183;28;20024;-85
2021/08/31 01:47:11;;;;;;;8.27;7.25;;;;;;;11.12;100.00;93375.38;2105057;28;20190;-84
2021/08/31 01:48:12;;;;;;;8.05;6.57;;;;;;;11.13;100.00;93379.53;2109708;28;20027;-85
2021/08/31 01:49:13;;;;;;;7.47;6.65;;;;;;;11.12;100.00;93377.28;2109873;28;20376;-85
2021/08/31 01:50:14;;;;;;;7.90;6.97;;;;;;;11.08;100.00;93377.34;2109909;28;20023;-85
2021/08/31 01:51:14;;;;;;;9.10;7.00;;;;;;;11.06;100.00;93377.00;2097452;28;20180;-84
2021/08/31 01:52:15;;;;;;;7.18;6.47;;;;;;;11.05;100.00;93381.59;2105264;28;20426;-85
2021/08/31 01:53:16;;;;;;;9.73;7.35;;;;;;;11.07;100.00;93375.84;2105218;28;20020;-84
2021/08/31 01:54:17;;;;;;;7.55;6.75;;;;;;;11.06;100.00;93377.78;2105633;28;20052;-84
2021/08/31 01:55:18;;;;;;;9.93;6.85;;;;;;;11.12;100.00;93382.63;2106404;28;20035;-84
2021/08/31 01:56:19;;;;;;;7.80;6.93;;;;;;;11.08;100.00;93375.44;2114092;28;20496;-84
2021/08/31 01:57:20;;;;;;;8.15;7.15;;;;;;;11.09;100.00;93386.88;2119351;27;20023;-84
2021/08/31 01:58:21;;;;;;;13.30;7.00;;;;;;;11.12;100.00;93377.28;2100753;28;20012;-84
2021/08/31 01:59:22;;;;;;;12.80;6.97;;;;;;;11.09;100.00;93374.25;2093051;28;20575;-84
2021/08/31 02:00:23;;;;;;;8.10;6.70;;;;;;;11.06;100.00;93380.44;2091665;28;20072;-85
2021/08/31 02:01:24;;;;;;;8.50;7.20;;;;;;;11.10;100.00;93386.44;2096271;28;20040;-85
2021/08/31 02:02:25;;;;;;;7.60;6.90;;;;;;;11.08;100.00;93388.81;2097222;28;20410;-85
2021/08/31 02:03:25;;;;;;;7.80;7.10;;;;;;;11.05;100.00;93383.50;2104586;28;20471;-85
2021/08/31 02:04:26;;;;;;;8.30;6.55;;;;;;;11.09;100.00;93381.53;2109527;28;20080;-84
2021/08/31 02:07:08;;;;;;;;;;;;;;;11.13;100.00;93384.88;2140237;27;20174;-84
2021/08/31 02:08:09;;;;;;;6.82;5.93;;;;;;;11.09;100.00;93384.94;2133280;27;20023;-82
2021/08/31 02:09:10;;;;;;;18.30;6.80;;;;;;;11.09;100.00;93384.19;2125400;27;20528;-84
2021/08/31 02:10:11;;;;;;;8.60;6.70;;;;;;;11.05;100.00;93380.84;2121868;27;20023;-84
2021/08/31 02:11:12;;;;;;;10.57;6.82;;;;;;;11.05;100.00;93384.25;2117457;27;20102;-84
2021/08/31 02:12:13;;;;;;;9.70;7.00;;;;;;;11.06;100.00;93385.78;2113634;27;20024;-83
2021/08/31 02:13:14;;;;;;;11.93;6.65;;;;;;;11.07;100.00;93391.91;2121880;27;20433;-82
2021/08/31 02:14:15;;;;;;;7.80;7.00;;;;;;;11.04;100.00;93380.09;2125527;27;20019;-86
2021/08/31 02:15:16;;;;;;;17.15;7.38;;;;;;;11.06;100.00;93388.47;2105222;28;20028;-85
2021/08/31 02:16:17;;;;;;;7.38;6.70;;;;;;;11.07;100.00;93381.19;2121017;28;20038;-84
2021/08/31 02:17:18;;;;;;;7.85;6.78;;;;;;;11.06;100.00;93383.13;2104657;28;20043;-85
2021/08/31 02:18:19;;;;;;;10.75;6.57;;;;;;;11.08;100.00;93383.44;2106670;27;20019;-86
2021/08/31 02:19:20;;;;;;;7.35;6.70;;;;;;;11.08;100.00;93377.34;2113213;27;20028;-84
2021/08/31 02:20:21;;;;;;;16.23;7.32;;;;;;;11.07;100.00;93381.19;2118658;28;20030;-85
2021/08/31 02:21:22;;;;;;;7.85;6.82;;;;;;;11.12;100.00;93379.97;2110314;28;20381;-80
2021/08/31 02:22:23;;;;;;;8.63;7.22;;;;;;;11.20;100.00;93378.66;2107253;28;20031;-84
2021/08/31 02:23:24;;;;;;;9.00;6.85;;;;;;;11.14;100.00;93374.94;2104531;28;20032;-85
2021/08/31 02:24:25;;;;;;;10.27;6.80;;;;;;;11.14;100.00;93373.00;2116770;28;20422;-87
2021/08/31 02:25:26;;;;;;;10.07;6.68;;;;;;;11.12;100.00;93377.28;2107012;28;20098;-85
2021/08/31 02:26:30;;;;;;;8.43;7.25;;;;;;;11.04;100.00;93374.75;2088142;28;20466;-87
2021/08/31 02:27:32;;;;;;;7.90;7.10;;;;;;;11.07;100.00;93379.28;2099736;28;20035;-83
2021/08/31 02:28:33;;;;;;;11.70;6.95;;;;;;;11.08;100.00;93374.66;2105756;28;20038;-86
2021/08/31 02:29:34;;;;;;;11.40;7.25;;;;;;;11.05;100.00;93373.56;2104710;28;20020;-84
2021/08/31 02:30:35;;;;;;;9.63;6.88;;;;;;;11.07;100.00;93378.53;2110967;27;20369;-88
2021/08/31 02:31:36;;;;;;;13.70;6.50;;;;;;;11.07;100.00;93373.16;2112819;28;20420;-85
2021/08/31 02:32:37;;;;;;;9.55;6.97;;;;;;;11.10;100.00;93381.09;2099380;28;20028;-86
2021/08/31 02:33:38;;;;;;;8.77;6.97;;;;;;;11.05;100.00;93376.25;2096533;28;20044;-86
2021/08/31 02:34:39;;;;;;;16.65;7.22;;;;;;;11.08;100.00;93377.34;2103978;28;20032;-84
2021/08/31 02:35:40;;;;;;;8.63;6.72;;;;;;;11.08;100.00;93374.66;2104782;28;20481;-88
2021/08/31 02:36:41;;;;;;;9.93;7.68;;;;;;;11.06;100.00;93382.34;2104568;28;20020;-87
2021/08/31 02:37:42;;;;;;;8.93;6.47;;;;;;;11.02;100.00;93382.44;2103392;28;20035;-85
2021/08/31 02:38:43;;;;;;;8.45;6.97;;;;;;;11.01;100.00;93372.88;2096280;28;20028;-87
2021/08/31 02:39:44;;;;;;;8.35;7.07;;;;;;;11.02;100.00;93379.75;2096378;28;20021;-85
2021/08/31 02:40:45;;;;;;;8.10;7.13;;;;;;;11.03;100.00;93381.25;2100822;28;20490;-84
2021/08/31 02:41:46;;;;;;;7.95;7.20;;;;;;;11.00;100.00;93374.03;2108708;28;20043;-84
2021/08/31 02:42:46;;;;;;;9.77;7.32;;;;;;;10.98;100.00;93371.03;2106752;28;20023;-85
2021/08/31 02:43:47;;;;;;;14.90;7.35;;;;;;;10.99;100.00;93375.22;2117469;28;20023;-87
2021/08/31 02:44:49;;;;;;;8.32;7.47;;;;;;;10.95;100.00;93385.22;2104487;28;20433;-83
2021/08/31 02:45:50;;;;;;;12.15;7.35;;;;;;;10.97;100.00;93377.53;2096548;28;20024;-84
2021/08/31 02:46:51;;;;;;;9.35;7.00;;;;;;;10.98;100.00;93373.72;2088003;28;20021;-84
2021/08/31 02:47:52;;;;;;;9.07;7.35;;;;;;;10.91;100.00;93373.84;2088177;28;20029;-87
2021/08/31 02:48:53;;;;;;;9.45;6.93;;;;;;;10.86;100.00;93378.91;2103268;28;20497;-85
2021/08/31 02:49:54;;;;;;;9.07;7.95;;;;;;;10.90;100.00;93383.03;2112675;28;20523;-86
2021/08/31 02:50:55;;;;;;;8.57;6.85;;;;;;;10.94;100.00;93375.72;2123120;27;20070;-84
2021/08/31 02:51:56;;;;;;;12.35;6.93;;;;;;;10.94;100.00;93389.06;2115133;28;20039;-86
2021/08/31 02:52:57;;;;;;;18.65;7.35;;;;;;;10.96;100.00;93377.97;2110953;28;20030;-85
2021/08/31 02:53:58;;;;;;;7.35;6.63;;;;;;;10.94;100.00;93374.97;2097951;28;20051;-84
2021/08/31 02:54:59;;;;;;;10.43;7.50;;;;;;;10.96;100.00;93385.97;2096302;28;20493;-85
2021/08/31 02:56:00;;;;;;;8.30;6.90;;;;;;;10.92;100.00;93388.72;2104707;28;20027;-83
2021/08/31 02:57:01;;;;;;;7.78;7.07;;;;;;;10.93;100.00;93384.91;2108724;28;20418;-86
2021/08/31 02:58:02;;;;;;;10.15;7.15;;;;;;;10.96;100.00;93384.06;2104536;28;20082;-83
2021/08/31 02:59:05;;;;;;;12.50;7.38;;;;;;;10.90;100.00;93391.06;2103137;28;20024;-83
2021/08/31 03:00:07;;;;;;;8.20;6.53;;;;;;;10.85;100.00;93386.19;2105544;28;20471;-83
2021/08/31 03:02:28;;;;;;;8.70;7.20;;;;;;;10.93;100.00;93389.47;2115635;28;20058;-86
2021/08/31 03:03:29;;;;;;;8.15;7.18;;;;;;;10.88;100.00;93387.28;2104270;28;20032;-84
2021/08/31 03:04:31;;;;;;;8.55;7.10;;;;;;;10.86;100.00;93389.63;2096209;28;20469;-86
2021/08/31 03:05:32;;;;;;;13.65;7.22;;;;;;;10.88;100.00;93387.28;2104258;28;20028;-86
2021/08/31 03:06:33;;;;;;;9.07;7.25;;;;;;;10.90;100.00;93393.72;2117937;28;20039;-84
2021/08/31 03:07:34;;;;;;;9.25;6.97;;;;;;;10.91;100.00;93386.47;2108535;27;20032;-85
2021/08/31 03:08:35;;;;;;;8.75;7.28;;;;;;;10.88;100.00;93385.34;2104214;28;20520;-85
2021/08/31 03:09:37;;;;;;;7.90;7.20;;;;;;;10.87;100.00;93385.78;2111737;28;20660;-85
2021/08/31 03:10:38;;;;;;;8.88;7.32;;;;;;;10.89;100.00;93391.44;2096477;28;20040;-82
2021/08/31 03:11:39;;;;;;;9.07;7.57;;;;;;;10.90;100.00;93391.06;2103534;28;20473;-87
2021/08/31 03:12:39;;;;;;;9.77;6.80;;;;;;;10.91;100.00;93391.81;2121449;27;20047;-85
2021/08/31 03:13:40;;;;;;;13.88;7.60;;;;;;;10.88;100.00;93395.31;2112839;28;20027;-86
2021/08/31 03:14:41;;;;;;;10.65;7.10;;;;;;;10.92;100.00;93393.31;2104217;28;20024;-86
2021/08/31 03:15:42;;;;;;;13.82;7.10;;;;;;;10.90;100.00;93392.97;2104368;28;20027;-89
2021/08/31 03:16:43;;;;;;;12.05;7.63;;;;;;;10.90;100.00;93395.66;2104363;28;20034;-84
2021/08/31 03:17:44;;;;;;;10.05;6.28;;;;;;;10.92;100.00;93399.41;2111723;28;20028;-85
2021/08/31 03:18:45;;;;;;;10.40;7.55;;;;;;;10.91;100.00;93392.56;2098554;28;20107;-87
2021/08/31 03:19:46;;;;;;;8.95;7.45;;;;;;;10.94;100.00;93397.09;2094125;28;20059;-85
2021/08/31 03:20:47;;;;;;;14.05;7.53;;;;;;;10.94;100.00;93399.03;2090650;28;20052;-87
2021/08/31 03:21:48;;;;;;;30.75;8.07;;;;;;;10.99;100.00;93395.88;2091791;28;20033;-85
2021/08/31 03:22:49;;;;;;;8.35;7.45;;;;;;;11.00;100.00;93394.69;2107162;28;20030;-84
2021/08/31 03:23:50;;;;;;;11.88;7.55;;;;;;;10.97;100.00;93396.25;2106965;28;20035;-86
2021/08/31 03:24:51;;;;;;;8.32;6.78;;;;;;;11.05;100.00;93391.53;2097684;28;20888;-88
2021/08/31 03:25:52;;;;;;;21.90;7.43;;;;;;;11.00;100.00;93392.03;2102976;28;20059;-88
2021/08/31 03:26:53;;;;;;;13.70;7.50;;;;;;;11.02;100.00;93392.38;2090531;28;20025;-87
2021/08/31 03:27:54;;;;;;;10.70;7.80;;;;;;;11.00;100.00;93387.41;2098805;28;20028;-87
2021/08/31 03:28:55;;;;;;;10.35;7.65;;;;;;;11.00;100.00;93397.38;2098641;28;20051;-83
2021/08/31 03:29:56;;;;;;;9.40;6.75;;;;;;;11.01;100.00;93396.94;2090241;28;20047;-82
2021/08/31 03:30:57;;;;;;;8.60;7.05;;;;;;;11.01;100.00;93393.53;2098711;28;20048;-85
2021/08/31 03:31:58;;;;;;;17.45;7.47;;;;;;;11.03;100.00;93385.84;2109017;28;20097;-83
2021/08/31 03:32:58;;;;;;;9.73;6.97;;;;;;;11.02;100.00;93381.69;2115373;28;20020;-81
2021/08/31 03:34:00;;;;;;;12.85;7.13;;;;;;;11.05;100.00;93402.25;2113374;28;20102;-86
2021/08/31 03:35:00;;;;;;;12.38;7.78;;;;;;;11.03;100.00;93383.94;2100896;28;20021;-85
2021/08/31 03:36:04;;;;;;;8.05;7.28;;;;;;;11.03;100.00;93393.88;2115608;28;20023;-83
2021/08/31 03:37:05;;;;;;;10.68;7.13;;;;;;;11.07;100.00;93395.31;2104269;28;20497;-82
2021/08/31 03:38:06;;;;;;;7.97;6.88;;;;;;;11.05;100.00;93392.28;2093427;28;20035;-81
2021/08/31 03:39:07;;;;;;;8.95;7.35;;;;;;;11.04;100.00;93385.44;2098785;28;20103;-83
2021/08/31 03:40:09;;;;;;;8.68;6.75;;;;;;;11.05;100.00;93394.97;2094223;28;20040;-85
2021/08/31 03:41:10;;;;;;;8.25;7.32;;;;;;;11.00;100.00;93395.44;2090598;28;20052;-81
2021/08/31 03:42:11;;;;;;;9.00;7.45;;;;;;;10.96;100.00;93396.69;2102501;28;20024;-85
2021/08/31 03:43:12;;;;;;;9.05;6.85;;;;;;;10.98;100.00;93402.38;2098060;28;20024;-85
2021/08/31 03:44:13;;;;;;;7.82;7.13;;;;;;;10.99;100.00;93399.28;2098549;28;20017;-85
2021/08/31 03:45:14;;;;;;;9.48;7.60;;;;;;;10.99;100.00;93403.88;2098497;28;20074;-84
2021/08/31 03:46:15;;;;;;;10.68;7.75;;;;;;;10.96;100.00;93400.09;2102337;28;20025;-83
2021/08/31 03:47:16;;;;;;;8.85;7.70;;;;;;;10.92;100.00;93407.44;2098577;28;20074;-85
2021/08/31 03:48:17;;;;;;;7.40;6.68;;;;;;;10.91;100.00;93400.59;2111041;28;20088;-82
2021/08/31 03:49:18;;;;;;;8.43;7.07;;;;;;;10.96;100.00;93410.81;2108337;28;20024;-88
2021/08/31 03:50:19;;;;;;;15.88;8.15;;;;;;;11.00;100.00;93406.16;2101867;28;20066;-84
2021/08/31 03:51:20;;;;;;;8.02;7.22;;;;;;;10.97;100.00;93400.84;2094260;28;20516;-85
2021/08/31 03:52:21;;;;;;;10.02;7.55;;;;;;;10.98;100.00;93403.13;2095308;28;20101;-82
2021/08/31 03:53:21;;;;;;;8.77;6.80;;;;;;;10.98;100.00;93405.06;2111104;28;20476;-88
2021/08/31 03:54:22;;;;;;;8.68;6.95;;;;;;;11.03;100.00;93413.34;2093170;28;20029;-88
2021/08/31 03:55:24;;;;;;;10.10;7.15;;;;;;;11.00;100.00;93414.16;2106764;28;20070;-83
2021/08/31 03:56:25;;;;;;;7.88;7.10;;;;;;;10.96;100.00;93413.47;2119372;27;20027;-85
2021/08/31 03:57:26;;;;;;;15.95;7.63;;;;;;;11.00;100.00;93410.75;2100828;28;20632;-81
2021/08/31 03:58:26;;;;;;;7.38;6.68;;;;;;;10.98;100.00;93408.50;2081761;28;20407;-85
2021/08/31 03:59:27;;;;;;;7.93;7.13;;;;;;;10.98;100.00;93407.75;2090349;28;20068;-83
2021/08/31 04:00:28;;;;;;;9.50;7.57;;;;;;;10.96;100.00;93413.47;2110862;28;20023;-83
2021/08/31 04:01:29;;;;;;;12.32;7.82;;;;;;;10.96;100.00;93413.47;2123824;27;20093;-85
2021/08/31 04:02:30;;;;;;;8.18;7.28;;;;;;;10.96;100.00;93413.47;2125803;27;20031;-82
2021/08/31 04:03:31;;;;;;;9.18;7.50;;;;;;;10.98;100.00;93413.84;2113190;28;20055;-85
2021/08/31 04:04:32;;;;;;;10.68;7.88;;;;;;;10.98;100.00;93413.84;2091784;28;20094;-85
2021/08/31 04:05:33;;;;;;;9.10;7.40;;;;;;;10.98;100.00;93419.19;2096837;28;20024;-84
2021/08/31 04:06:34;;;;;;;11.35;7.32;;;;;;;10.91;100.00;93416.63;2099239;28;20049;-85
2021/08/31 04:07:34;;;;;;;20.60;7.63;;;;;;;10.93;100.00;93413.53;2105546;28;20032;-82
2021/08/31 04:08:36;;;;;;;9.05;7.20;;;;;;;10.95;100.00;93419.25;2094132;28;20108;-83
2021/08/31 04:09:36;;;;;;;9.90;7.10;;;;;;;10.92;100.00;93418.13;2106113;28;20031;-84
2021/08/31 04:10:37;;;;;;;12.23;7.15;;;;;;;10.95;100.00;93408.56;2108395;28;20035;-86
2021/08/31 04:11:39;;;;;;;10.02;7.07;;;;;;;10.94;100.00;93418.50;2107102;28;20575;-83
2021/08/31 04:12:40;;;;;;;10.25;7.15;;;;;;;10.92;100.00;93410.13;2099650;28;20462;-84
2021/08/31 04:13:41;;;;;;;8.05;6.55;;;;;;;10.97;100.00;93409.63;2098873;28;20028;-85
2021/08/31 04:14:43;;;;;;;8.32;7.18;;;;;;;10.97;100.00;93419.59;2089852;28;20037;-82
2021/08/31 04:15:48;;;;;;;9.50;7.47;;;;;;;10.92;100.00;93420.81;2098440;28;20034;-85
2021/08/31 04:16:49;;;;;;;10.95;6.97;;;;;;;10.90;100.00;93417.06;2103005;28;20111;-84
2021/08/31 04:17:50;;;;;;;7.93;6.85;;;;;;;10.93;100.00;93414.31;2115273;28;20028;-86
2021/08/31 04:18:51;;;;;;;9.05;6.95;;;;;;;10.89;100.00;93412.84;2102377;28;20501;-84
2021/08/31 04:19:52;;;;;;;9.98;7.45;;;;;;;10.91;100.00;93413.22;2102247;28;20413;-85
2021/08/31 04:20:53;;;;;;;8.38;7.25;;;;;;;10.90;100.00;93412.47;2100786;28;20021;-84
2021/08/31 04:21:54;;;;;;;16.48;8.10;;;;;;;10.90;100.00;93411.72;2098583;28;20028;-83
2021/08/31 04:22:55;;;;;;;13.18;7.57;;;;;;;10.87;100.00;93407.91;2108201;28;20020;-84
2021/08/31 04:23:56;;;;;;;8.38;7.18;;;;;;;10.88;100.00;93406.00;2106657;28;20031;-81
2021/08/31 04:24:57;;;;;;;8.52;7.40;;;;;;;10.88;100.00;93406.00;2104730;28;20036;-84
2021/08/31 04:25:58;;;;;;;11.52;7.20;;;;;;;10.83;100.00;93407.97;2104044;28;20034;-85
2021/08/31 04:26:58;;;;;;;9.30;7.32;;;;;;;10.87;100.00;93404.50;2093934;28;20112;-84
2021/08/31 04:27:59;;;;;;;8.18;7.32;;;;;;;10.90;100.00;93401.00;2104394;28;20027;-85
2021/08/31 04:29:00;;;;;;;9.48;7.57;;;;;;;10.87;100.00;93407.91;2093874;28;20071;-83
2021/08/31 04:30:03;;;;;;;11.73;7.85;;;;;;;10.91;100.00;93400.59;2092988;28;20477;-84
2021/08/31 04:31:04;;;;;;;12.15;7.43;;;;;;;10.92;100.00;93401.34;2093160;28;20056;-83
2021/08/31 04:32:06;;;;;;;13.77;7.65;;;;;;;10.89;100.00;93402.94;2096969;28;20425;-86
2021/08/31 04:33:07;;;;;;;10.25;7.10;;;;;;;10.88;100.00;93409.41;2089761;28;20082;-86
2021/08/31 04:34:07;;;;;;;8.77;7.30;;;;;;;10.82;100.00;93406.47;2097149;28;20065;-84
2021/08/31 04:35:09;;;;;;;8.80;7.53;;;;;;;10.77;100.00;93411.53;2097175;28;20455;-85
2021/08/31 04:36:11;;;;;;;9.13;6.78;;;;;;;10.81;100.00;93410.31;2106505;28;20405;-85
2021/08/31 04:37:12;;;;;;;8.00;7.20;;;;;;;10.76;100.00;93408.13;2098326;28;20366;-85
2021/08/31 04:38:13;;;;;;;11.10;8.45;;;;;;;10.80;100.00;93410.75;2104614;28;20031;-81
2021/08/31 04:39:14;;;;;;;10.20;7.18;;;;;;;10.80;100.00;93414.16;2106422;28;20085;-86
2021/08/31 04:40:15;;;;;;;9.60;7.20;;;;;;;10.79;100.00;93417.97;2101993;28;20405;-85
2021/08/31 04:41:17;;;;;;;9.50;7.70;;;;;;;10.79;100.00;93411.88;2103268;28;20032;-84
2021/08/31 04:42:18;;;;;;;8.77;7.68;;;;;;;10.78;100.00;93411.13;2110861;28;20491;-85
2021/08/31 04:43:19;;;;;;;9.57;7.95;;;;;;;10.78;100.00;93415.72;2101659;28;20059;-83
2021/08/31 04:44:19;;;;;;;14.48;8.20;;;;;;;10.76;100.00;93415.38;2115273;27;20472;-86
2021/08/31 04:45:20;;;;;;;8.23;7.18;;;;;;;10.74;100.00;93407.75;2118725;27;20039;-86
2021/08/31 04:46:21;;;;;;;8.85;7.47;;;;;;;10.69;100.00;93413.59;2111437;28;20184;-82